createdAt,value
2018-12-31T00:02:03.548Z,99.90
2018-12-31T00:04:35.698Z,99.90
2018-12-31T00:07:07.529Z,99.90
2018-12-31T00:09:39.263Z,99.90
2018-12-31T00:12:11.248Z,99.90
2018-12-31T00:14:43.324Z,99.90
2018-12-31T00:17:18.257Z,99.90
2018-12-31T00:19:50.310Z,99.90
2018-12-31T00:22:21.857Z,99.90
2018-12-31T00:24:53.383Z,99.90
2018-12-31T00:27:25.563Z,99.90
2018-12-31T00:29:57.476Z,99.90
2018-12-31T00:32:29.252Z,99.90
2018-12-31T00:35:01.431Z,99.90
2018-12-31T00:37:33.297Z,99.90
2018-12-31T00:40:05.093Z,99.90
2018-12-31T00:42:36.868Z,99.90
2018-12-31T00:45:09.270Z,99.90
2018-12-31T00:47:41.041Z,99.90
2018-12-31T00:50:12.642Z,99.90
2018-12-31T00:52:44.223Z,99.90
2018-12-31T00:55:16.000Z,99.90
2018-12-31T00:57:47.702Z,99.90
2018-12-31T01:00:19.365Z,99.90
2018-12-31T01:02:51.028Z,99.90
2018-12-31T01:05:22.674Z,99.90
2018-12-31T01:07:54.639Z,99.90
2018-12-31T01:10:28.300Z,99.90
2018-12-31T01:13:00.022Z,99.90
2018-12-31T01:15:31.779Z,99.90
2018-12-31T01:18:03.568Z,99.90
2018-12-31T01:20:35.771Z,99.90
2018-12-31T01:23:07.662Z,99.90
2018-12-31T01:25:39.664Z,99.90
2018-12-31T01:28:11.395Z,99.90
2018-12-31T01:30:42.986Z,99.90
2018-12-31T01:33:14.630Z,99.90
2018-12-31T01:35:46.714Z,99.90
2018-12-31T01:38:18.392Z,99.90
2018-12-31T01:40:50.135Z,99.90
2018-12-31T01:43:21.705Z,99.90
2018-12-31T01:45:53.244Z,99.90
2018-12-31T01:48:24.961Z,99.90
2018-12-31T01:50:56.883Z,99.90
2018-12-31T01:53:28.840Z,99.90
2018-12-31T01:56:01.700Z,99.90
2018-12-31T01:58:33.504Z,99.90
2018-12-31T02:01:05.258Z,99.90
2018-12-31T02:03:36.896Z,99.90
2018-12-31T02:06:08.649Z,99.90
2018-12-31T02:08:40.326Z,99.90
2018-12-31T02:11:11.862Z,99.90
2018-12-31T02:13:43.489Z,99.90
2018-12-31T02:16:16.529Z,99.90
2018-12-31T02:18:48.152Z,99.90
2018-12-31T02:21:21.059Z,99.90
2018-12-31T02:23:53.053Z,99.90
2018-12-31T02:26:25.507Z,99.90
2018-12-31T02:28:57.203Z,99.90
2018-12-31T02:31:29.139Z,99.90
2018-12-31T02:34:00.740Z,99.90
2018-12-31T02:36:32.614Z,99.90
2018-12-31T02:39:04.654Z,99.90
2018-12-31T02:41:36.392Z,99.90
2018-12-31T02:44:08.057Z,99.90
2018-12-31T02:46:39.692Z,99.90
2018-12-31T02:49:11.346Z,99.90
2018-12-31T02:51:42.999Z,99.90
2018-12-31T02:54:14.807Z,99.90
2018-12-31T02:56:46.561Z,99.90
2018-12-31T02:59:18.169Z,99.90
2018-12-31T03:01:49.949Z,99.90
2018-12-31T03:04:21.683Z,99.90
2018-12-31T03:06:53.341Z,99.90
2018-12-31T03:09:24.985Z,99.90
2018-12-31T03:11:56.680Z,99.90
2018-12-31T03:14:28.442Z,99.90
2018-12-31T03:17:00.061Z,99.90
2018-12-31T03:19:31.620Z,99.90
2018-12-31T03:22:03.414Z,99.90
2018-12-31T03:24:35.450Z,99.90
2018-12-31T03:27:07.300Z,99.90
2018-12-31T03:29:39.043Z,99.90
2018-12-31T03:32:10.816Z,99.90
2018-12-31T03:34:42.404Z,99.90
2018-12-31T03:37:13.925Z,99.90
2018-12-31T03:39:45.528Z,99.90
2018-12-31T03:42:17.239Z,99.90
2018-12-31T03:44:48.973Z,99.90
2018-12-31T03:47:20.407Z,99.90
2018-12-31T03:49:52.091Z,99.90
2018-12-31T03:52:23.698Z,99.90
2018-12-31T03:54:55.858Z,99.90
2018-12-31T03:57:27.385Z,99.90
2018-12-31T03:59:59.095Z,99.90
2018-12-31T04:02:30.883Z,99.90
2018-12-31T04:05:02.468Z,99.90
2018-12-31T04:07:34.065Z,99.90
2018-12-31T04:10:05.886Z,99.90
2018-12-31T04:12:37.432Z,99.90
2018-12-31T04:15:09.251Z,99.90
2018-12-31T04:17:40.911Z,99.90
2018-12-31T04:20:12.357Z,99.90
2018-12-31T04:22:44.052Z,99.90
2018-12-31T04:25:15.838Z,99.90
2018-12-31T04:27:49.421Z,99.90
2018-12-31T04:30:21.129Z,99.90
2018-12-31T04:32:52.820Z,99.90
2018-12-31T04:35:24.831Z,99.90
2018-12-31T04:37:56.403Z,99.90
2018-12-31T04:40:28.138Z,99.90
2018-12-31T04:42:59.707Z,99.90
2018-12-31T04:45:32.460Z,99.90
2018-12-31T04:48:03.872Z,99.90
2018-12-31T04:50:35.549Z,99.90
2018-12-31T04:53:07.265Z,99.90
2018-12-31T04:55:44.197Z,99.90
2018-12-31T04:58:12.421Z,99.90
2018-12-31T05:00:44.160Z,99.90
2018-12-31T05:03:15.751Z,99.90
2018-12-31T05:05:48.195Z,99.90
2018-12-31T05:08:22.715Z,99.90
2018-12-31T05:10:54.559Z,99.90
2018-12-31T05:13:26.524Z,99.90
2018-12-31T05:15:58.979Z,99.90
2018-12-31T05:18:30.877Z,99.90
2018-12-31T05:21:03.464Z,99.90
2018-12-31T05:23:35.270Z,99.90
2018-12-31T05:26:07.276Z,99.90
2018-12-31T05:28:38.803Z,99.90
2018-12-31T05:31:10.569Z,99.90
2018-12-31T05:33:44.995Z,99.90
2018-12-31T05:36:17.099Z,99.90
2018-12-31T05:38:49.300Z,99.90
2018-12-31T05:41:21.464Z,99.90
2018-12-31T05:43:53.383Z,99.90
2018-12-31T05:46:25.025Z,99.90
2018-12-31T05:48:57.032Z,99.90
2018-12-31T05:51:29.683Z,99.90
2018-12-31T05:54:01.363Z,99.90
2018-12-31T05:56:33.149Z,99.90
2018-12-31T05:59:04.919Z,99.90
2018-12-31T06:01:37.269Z,99.90
2018-12-31T06:04:10.416Z,99.90
2018-12-31T06:06:42.072Z,99.90
2018-12-31T06:09:13.882Z,99.90
2018-12-31T06:11:46.518Z,99.90
2018-12-31T06:14:18.387Z,99.90
2018-12-31T06:16:51.077Z,99.90
2018-12-31T06:19:22.722Z,99.90
2018-12-31T06:21:58.024Z,99.90
2018-12-31T06:24:29.921Z,99.90
2018-12-31T06:27:02.511Z,99.90
2018-12-31T06:29:34.739Z,99.90
2018-12-31T06:32:06.541Z,99.90
2018-12-31T06:34:39.380Z,99.90
2018-12-31T06:37:11.107Z,99.90
2018-12-31T06:39:43.898Z,99.90
2018-12-31T06:42:15.535Z,99.90
2018-12-31T06:44:47.519Z,99.90
2018-12-31T06:47:19.241Z,99.90
2018-12-31T06:49:51.020Z,99.90
2018-12-31T06:52:22.728Z,99.90
2018-12-31T06:54:54.777Z,99.90
2018-12-31T06:57:27.027Z,99.90
2018-12-31T07:00:00.894Z,99.90
2018-12-31T07:02:32.795Z,99.90
2018-12-31T07:05:04.710Z,99.90
2018-12-31T07:07:37.040Z,99.90
2018-12-31T07:10:09.365Z,99.90
2018-12-31T07:12:41.415Z,99.90
2018-12-31T07:15:13.396Z,99.90
2018-12-31T07:17:45.088Z,99.90
2018-12-31T07:20:16.884Z,99.90
2018-12-31T07:22:48.523Z,99.90
2018-12-31T07:25:20.380Z,99.90
2018-12-31T07:27:52.246Z,99.90
2018-12-31T07:30:24.176Z,99.90
2018-12-31T07:32:56.359Z,99.90
2018-12-31T07:35:28.239Z,99.90
2018-12-31T07:38:00.011Z,99.90
2018-12-31T07:40:31.764Z,99.90
2018-12-31T07:43:06.478Z,99.90
2018-12-31T07:45:38.321Z,99.90
2018-12-31T07:48:10.167Z,99.90
2018-12-31T07:50:42.187Z,99.90
2018-12-31T07:53:13.883Z,99.90
2018-12-31T07:55:46.010Z,99.90
2018-12-31T07:58:17.741Z,99.90
2018-12-31T08:00:49.422Z,99.90
2018-12-31T08:03:21.230Z,99.90
2018-12-31T08:05:52.842Z,99.90
2018-12-31T08:08:25.094Z,99.90
2018-12-31T08:10:56.761Z,99.90
2018-12-31T08:13:28.879Z,99.90
2018-12-31T08:16:00.587Z,99.90
2018-12-31T08:18:32.348Z,99.90
2018-12-31T08:21:04.817Z,99.90
2018-12-31T08:23:36.882Z,99.90
2018-12-31T08:26:08.670Z,99.90
2018-12-31T08:28:40.410Z,99.90
2018-12-31T08:31:12.238Z,99.90
2018-12-31T08:33:44.709Z,99.90
2018-12-31T08:36:16.401Z,99.90
2018-12-31T08:38:48.968Z,99.90
2018-12-31T08:41:21.511Z,99.90
2018-12-31T08:43:56.420Z,99.90
2018-12-31T08:46:28.798Z,99.90
2018-12-31T08:49:01.079Z,99.90
2018-12-31T08:51:33.769Z,99.90
2018-12-31T08:54:06.421Z,99.90
2018-12-31T08:56:38.395Z,99.90
2018-12-31T08:59:10.335Z,99.90
2018-12-31T09:01:42.217Z,99.90
2018-12-31T09:04:15.979Z,99.90
2018-12-31T09:06:48.686Z,99.90
2018-12-31T09:09:21.031Z,99.90
2018-12-31T09:11:53.193Z,99.90
2018-12-31T09:14:26.438Z,99.90
2018-12-31T09:16:58.587Z,99.90
2018-12-31T09:19:31.686Z,99.90
2018-12-31T09:22:03.947Z,99.90
2018-12-31T09:24:44.474Z,99.90
2018-12-31T09:27:12.572Z,99.90
2018-12-31T09:29:45.021Z,99.90
2018-12-31T09:32:18.254Z,99.90
2018-12-31T09:34:51.307Z,99.90
2018-12-31T09:37:24.417Z,99.90
2018-12-31T09:39:56.449Z,99.90
2018-12-31T09:42:30.240Z,99.90
2018-12-31T09:45:03.162Z,99.90
2018-12-31T09:47:35.502Z,99.90
2018-12-31T09:50:08.179Z,99.90
2018-12-31T09:52:42.072Z,99.90
2018-12-31T09:55:15.233Z,99.90
2018-12-31T09:57:49.314Z,99.90
2018-12-31T10:00:22.081Z,99.90
2018-12-31T10:02:54.588Z,99.90
2018-12-31T10:05:26.965Z,99.90
2018-12-31T10:07:59.279Z,99.90
2018-12-31T10:10:31.772Z,99.90
2018-12-31T10:13:04.147Z,99.90
2018-12-31T10:15:37.383Z,99.90
2018-12-31T10:18:09.962Z,99.90
2018-12-31T10:20:42.846Z,99.90
2018-12-31T10:23:15.607Z,99.90
2018-12-31T10:25:48.047Z,99.90
2018-12-31T10:28:20.584Z,99.90
2018-12-31T10:30:53.605Z,99.90
2018-12-31T10:33:26.700Z,99.90
2018-12-31T10:35:59.076Z,99.90
2018-12-31T10:38:32.784Z,99.90
2018-12-31T10:41:06.431Z,99.90
2018-12-31T10:43:38.663Z,99.90
2018-12-31T10:46:11.231Z,99.90
2018-12-31T10:48:43.201Z,99.90
2018-12-31T10:51:15.930Z,99.90
2018-12-31T10:53:49.175Z,99.90
2018-12-31T10:56:22.532Z,99.90
2018-12-31T10:58:55.100Z,99.90
2018-12-31T11:01:28.875Z,99.90
2018-12-31T11:04:01.260Z,99.90
2018-12-31T11:06:33.581Z,99.90
2018-12-31T11:09:09.500Z,99.90
2018-12-31T11:11:44.112Z,99.90
2018-12-31T11:14:16.383Z,99.90
2018-12-31T11:16:49.357Z,99.90
2018-12-31T11:19:22.959Z,99.90
2018-12-31T11:21:56.160Z,99.90
2018-12-31T11:24:29.120Z,99.90
2018-12-31T11:27:02.158Z,99.90
2018-12-31T11:29:34.699Z,99.90
2018-12-31T11:32:06.871Z,99.90
2018-12-31T11:34:39.727Z,99.90
2018-12-31T11:37:13.390Z,99.90
2018-12-31T11:39:46.191Z,99.90
2018-12-31T11:42:18.316Z,99.90
2018-12-31T11:44:52.579Z,99.90
2018-12-31T11:47:28.429Z,99.90
2018-12-31T11:50:03.057Z,99.90
2018-12-31T11:52:35.978Z,99.90
2018-12-31T11:55:08.281Z,99.90
2018-12-31T11:57:40.848Z,99.90
2018-12-31T12:00:12.824Z,99.90
2018-12-31T12:02:46.295Z,99.90
2018-12-31T12:05:19.996Z,99.30
2018-12-31T12:07:52.220Z,99.10
2018-12-31T12:10:24.647Z,99.30
2018-12-31T12:12:58.256Z,99.70
2018-12-31T12:15:30.468Z,99.60
2018-12-31T12:18:03.271Z,98.40
2018-12-31T12:20:35.727Z,98.10
2018-12-31T12:23:09.683Z,97.70
2018-12-31T12:25:42.750Z,97.20
2018-12-31T12:28:16.205Z,96.30
2018-12-31T12:30:52.849Z,95.40
2018-12-31T12:33:28.649Z,95.10
2018-12-31T12:36:01.124Z,95.20
2018-12-31T12:38:38.538Z,95.30
2018-12-31T12:41:11.658Z,95.30
2018-12-31T12:43:44.976Z,95.60
2018-12-31T12:46:19.646Z,94.80
2018-12-31T12:48:52.621Z,95.10
2018-12-31T12:51:27.353Z,94.40
2018-12-31T12:54:00.552Z,94.30
2018-12-31T12:56:35.276Z,92.40
2018-12-31T12:59:08.077Z,91.60
2018-12-31T13:01:41.858Z,89.60
2018-12-31T13:04:15.592Z,87.30
2018-12-31T13:06:47.828Z,87.40
2018-12-31T13:09:21.374Z,85.10
2018-12-31T13:11:54.728Z,84.10
2018-12-31T13:14:29.564Z,83.90
2018-12-31T13:17:09.174Z,83.70
2018-12-31T13:19:42.140Z,81.90
2018-12-31T13:22:14.844Z,81.20
2018-12-31T13:24:47.118Z,78.50
2018-12-31T13:27:19.648Z,76.50
2018-12-31T13:29:53.187Z,75.30
2018-12-31T13:32:24.973Z,76.10
2018-12-31T13:34:57.455Z,76.70
2018-12-31T13:37:30.117Z,75.70
2018-12-31T13:40:03.326Z,75.40
2018-12-31T13:42:35.423Z,75.10
2018-12-31T13:45:09.254Z,74.10
2018-12-31T13:47:42.929Z,71.90
2018-12-31T13:50:15.353Z,71.80
2018-12-31T13:52:47.972Z,73.90
2018-12-31T13:55:20.326Z,76.50
2018-12-31T13:57:52.449Z,76.10
2018-12-31T14:00:24.610Z,76.90
2018-12-31T14:02:56.590Z,78.10
2018-12-31T14:05:28.722Z,77.90
2018-12-31T14:08:00.424Z,76.00
2018-12-31T14:10:32.370Z,76.30
2018-12-31T14:13:04.870Z,71.30
2018-12-31T14:15:36.772Z,69.80
2018-12-31T14:18:08.969Z,69.70
2018-12-31T14:20:41.083Z,70.00
2018-12-31T14:23:15.140Z,70.10
2018-12-31T14:25:47.099Z,71.90
2018-12-31T14:28:19.069Z,70.40
2018-12-31T14:30:51.169Z,67.00
2018-12-31T14:33:23.268Z,67.30
2018-12-31T14:35:55.585Z,68.90
2018-12-31T14:38:28.618Z,70.50
2018-12-31T14:41:02.306Z,71.30
2018-12-31T14:43:34.494Z,72.20
2018-12-31T14:46:07.280Z,72.30
2018-12-31T14:48:39.641Z,73.00
2018-12-31T14:51:13.611Z,72.30
2018-12-31T14:53:46.200Z,72.70
2018-12-31T14:56:18.878Z,71.90
2018-12-31T14:58:50.531Z,72.00
2018-12-31T15:01:23.609Z,72.40
2018-12-31T15:03:55.694Z,72.30
2018-12-31T15:06:27.757Z,72.10
2018-12-31T15:09:00.031Z,71.60
2018-12-31T15:11:32.065Z,71.10
2018-12-31T15:14:04.288Z,70.70
2018-12-31T15:16:36.500Z,71.00
2018-12-31T15:19:08.577Z,71.40
2018-12-31T15:21:40.829Z,71.70
2018-12-31T15:24:12.870Z,71.70
2018-12-31T15:26:45.718Z,70.70
2018-12-31T15:29:17.638Z,72.30
2018-12-31T15:31:49.615Z,73.60
2018-12-31T15:34:22.160Z,75.70
2018-12-31T15:36:54.423Z,77.40
2018-12-31T15:39:26.408Z,80.80
2018-12-31T15:41:58.251Z,81.40
2018-12-31T15:44:30.631Z,84.00
2018-12-31T15:47:02.813Z,88.50
2018-12-31T15:49:34.733Z,91.00
2018-12-31T15:52:09.409Z,92.60
2018-12-31T15:54:41.486Z,93.40
2018-12-31T15:57:13.991Z,95.80
2018-12-31T15:59:45.831Z,97.30
2018-12-31T16:02:18.133Z,98.70
2018-12-31T16:04:50.812Z,99.90
2018-12-31T16:07:23.061Z,99.90
2018-12-31T16:09:55.512Z,99.90
2018-12-31T16:12:28.455Z,99.90
2018-12-31T16:15:01.438Z,99.90
2018-12-31T16:17:35.126Z,99.90
2018-12-31T16:20:08.192Z,99.90
2018-12-31T16:22:40.862Z,99.90
2018-12-31T16:25:13.839Z,99.90
2018-12-31T16:27:48.625Z,99.90
2018-12-31T16:30:24.423Z,99.90
2018-12-31T16:33:00.220Z,99.90
2018-12-31T16:35:33.335Z,99.90
2018-12-31T16:38:06.865Z,99.90
2018-12-31T16:40:38.807Z,99.90
2018-12-31T16:43:11.703Z,99.90
2018-12-31T16:45:44.489Z,99.90
2018-12-31T16:48:23.734Z,99.90
2018-12-31T16:50:55.857Z,99.90
2018-12-31T16:53:31.708Z,99.90
2018-12-31T16:56:05.841Z,99.90
2018-12-31T16:58:38.969Z,99.90
2018-12-31T17:01:11.170Z,99.90
2018-12-31T17:03:46.530Z,99.90
2018-12-31T17:06:20.194Z,99.90
2018-12-31T17:08:52.683Z,99.90
2018-12-31T17:11:25.300Z,99.90
2018-12-31T17:13:58.064Z,99.90
2018-12-31T17:16:30.720Z,99.90
2018-12-31T17:19:04.167Z,99.90
2018-12-31T17:21:36.953Z,99.90
2018-12-31T17:24:10.514Z,99.90
2018-12-31T17:26:44.438Z,99.90
2018-12-31T17:29:16.756Z,99.90
2018-12-31T17:31:53.088Z,99.90
2018-12-31T17:34:25.989Z,99.90
2018-12-31T17:36:59.246Z,99.90
2018-12-31T17:39:32.941Z,99.90
2018-12-31T17:42:09.915Z,99.90
2018-12-31T17:44:41.043Z,99.90
2018-12-31T17:47:16.765Z,99.90
2018-12-31T17:49:49.993Z,99.90
2018-12-31T17:52:22.148Z,99.90
2018-12-31T17:54:54.519Z,99.90
2018-12-31T17:57:26.940Z,99.90
2018-12-31T18:00:00.638Z,99.90
2018-12-31T18:02:34.105Z,99.90
2018-12-31T18:05:06.891Z,99.90
2018-12-31T18:07:39.465Z,99.90
2018-12-31T18:10:12.617Z,99.90
2018-12-31T18:12:45.307Z,99.90
2018-12-31T18:15:17.649Z,99.90
2018-12-31T18:17:49.590Z,99.90
2018-12-31T18:20:23.525Z,99.90
2018-12-31T18:22:55.383Z,99.90
2018-12-31T18:25:28.526Z,99.90
2018-12-31T18:28:00.648Z,99.90
2018-12-31T18:30:33.202Z,99.90
2018-12-31T18:33:05.556Z,99.90
2018-12-31T18:35:37.620Z,99.90
2018-12-31T18:38:10.838Z,99.90
2018-12-31T18:40:44.520Z,99.90
2018-12-31T18:43:16.914Z,99.90
2018-12-31T18:45:50.903Z,99.90
2018-12-31T18:48:22.978Z,99.90
2018-12-31T18:50:55.647Z,99.90
2018-12-31T18:53:27.674Z,99.90
2018-12-31T18:55:59.906Z,99.90
2018-12-31T18:58:32.574Z,99.90
2018-12-31T19:01:04.554Z,99.90
2018-12-31T19:03:37.939Z,99.90
2018-12-31T19:06:11.532Z,99.90
2018-12-31T19:08:44.749Z,99.90
2018-12-31T19:11:17.801Z,99.90
2018-12-31T19:13:51.339Z,99.90
2018-12-31T19:16:23.739Z,99.90
2018-12-31T19:19:01.330Z,99.90
2018-12-31T19:21:34.329Z,99.90
2018-12-31T19:24:07.239Z,99.90
2018-12-31T19:26:39.581Z,99.90
2018-12-31T19:29:11.905Z,99.90
2018-12-31T19:31:44.412Z,99.90
2018-12-31T19:34:17.025Z,99.90
2018-12-31T19:36:49.914Z,99.90
2018-12-31T19:39:23.624Z,99.90
2018-12-31T19:41:56.618Z,99.90
2018-12-31T19:44:28.467Z,99.90
2018-12-31T19:47:01.955Z,99.90
2018-12-31T19:49:36.046Z,99.90
2018-12-31T19:52:08.894Z,99.90
2018-12-31T19:54:41.923Z,99.90
2018-12-31T19:57:15.857Z,99.90
2018-12-31T19:59:51.623Z,99.90
2018-12-31T20:02:24.536Z,99.90
2018-12-31T20:04:58.282Z,99.90
2018-12-31T20:07:30.521Z,99.90
2018-12-31T20:10:04.890Z,99.90
2018-12-31T20:12:36.972Z,99.90
2018-12-31T20:15:10.252Z,99.90
2018-12-31T20:17:42.328Z,99.90
2018-12-31T20:20:14.576Z,99.90
2018-12-31T20:22:47.066Z,99.90
2018-12-31T20:25:19.710Z,99.90
2018-12-31T20:27:51.314Z,99.90
2018-12-31T20:30:25.358Z,99.90
2018-12-31T20:32:57.516Z,99.90
2018-12-31T20:35:29.858Z,99.90
2018-12-31T20:38:02.336Z,99.90
2018-12-31T20:40:34.363Z,99.90
2018-12-31T20:43:06.116Z,99.90
2018-12-31T20:45:37.881Z,99.90
2018-12-31T20:48:09.599Z,99.90
2018-12-31T20:50:41.962Z,99.90
2018-12-31T20:53:16.318Z,99.90
2018-12-31T20:55:48.544Z,99.90
2018-12-31T20:58:21.881Z,99.90
2018-12-31T21:00:53.895Z,99.90
2018-12-31T21:03:25.886Z,99.90
2018-12-31T21:05:57.630Z,99.90
2018-12-31T21:08:30.964Z,99.90
2018-12-31T21:11:03.302Z,99.90
2018-12-31T21:13:35.379Z,99.90
2018-12-31T21:16:07.363Z,99.90
2018-12-31T21:18:39.590Z,99.90
2018-12-31T21:21:11.342Z,99.90
2018-12-31T21:23:44.061Z,99.90
2018-12-31T21:26:15.684Z,99.90
2018-12-31T21:28:47.588Z,99.90
2018-12-31T21:31:19.233Z,99.90
2018-12-31T21:33:51.924Z,99.90
2018-12-31T21:36:23.844Z,99.90
2018-12-31T21:38:56.035Z,99.90
2018-12-31T21:41:28.525Z,99.90
2018-12-31T21:44:00.558Z,99.90
2018-12-31T21:46:32.511Z,99.90
2018-12-31T21:49:05.573Z,99.90
2018-12-31T21:51:37.218Z,99.90
2018-12-31T21:54:08.917Z,99.90
2018-12-31T21:56:41.141Z,99.90
2018-12-31T21:59:13.033Z,99.90
2018-12-31T22:01:48.385Z,99.90
2018-12-31T22:04:20.322Z,99.90
2018-12-31T22:06:52.243Z,99.90
2018-12-31T22:09:23.984Z,99.90
2018-12-31T22:11:56.192Z,99.90
2018-12-31T22:14:28.108Z,99.90
2018-12-31T22:17:00.131Z,99.90
2018-12-31T22:19:31.966Z,99.90
2018-12-31T22:22:03.963Z,99.90
2018-12-31T22:24:35.961Z,99.90
2018-12-31T22:27:07.716Z,99.90
2018-12-31T22:29:39.548Z,99.90
2018-12-31T22:32:11.570Z,99.90
2018-12-31T22:34:43.566Z,99.90
2018-12-31T22:37:15.666Z,99.90
2018-12-31T22:39:47.944Z,99.90
2018-12-31T22:42:20.121Z,99.90
2018-12-31T22:44:51.772Z,99.90
2018-12-31T22:47:23.908Z,99.90
2018-12-31T22:49:55.910Z,99.90
2018-12-31T22:52:28.078Z,99.90
2018-12-31T22:55:00.800Z,99.90
2018-12-31T22:57:32.634Z,99.90
2018-12-31T23:00:05.183Z,99.90
2018-12-31T23:02:37.120Z,99.90
2018-12-31T23:05:11.970Z,99.90
2018-12-31T23:07:44.059Z,99.90
2018-12-31T23:10:16.576Z,99.90
2018-12-31T23:12:48.777Z,99.90
2018-12-31T23:15:25.233Z,99.90
2018-12-31T23:17:56.926Z,99.90
2018-12-31T23:20:28.931Z,99.90
2018-12-31T23:23:01.139Z,99.90
2018-12-31T23:25:32.947Z,99.90
2018-12-31T23:28:04.646Z,99.90
2018-12-31T23:30:36.596Z,99.90
2018-12-31T23:33:08.763Z,99.90
2018-12-31T23:35:40.527Z,99.90
2018-12-31T23:38:12.283Z,99.90
2018-12-31T23:40:44.110Z,99.90
2018-12-31T23:43:16.580Z,99.90
2018-12-31T23:45:50.813Z,99.90
2018-12-31T23:48:22.851Z,99.90
2018-12-31T23:50:54.541Z,99.90
2018-12-31T23:53:26.761Z,99.90
2018-12-31T23:55:58.588Z,99.90
2018-12-31T23:58:30.701Z,99.90
